createdAt,value
2022-09-09T00:03:04.482Z,15.33
2022-09-09T00:06:17.917Z,15.33
2022-09-09T00:09:23.059Z,15.21
2022-09-09T00:12:34.368Z,15.20
2022-09-09T00:15:43.014Z,15.00
2022-09-09T00:18:55.918Z,15.13
2022-09-09T00:22:15.025Z,15.23
2022-09-09T00:25:25.599Z,15.17
2022-09-09T00:28:31.272Z,15.23
2022-09-09T00:31:34.300Z,15.16
2022-09-09T00:34:41.374Z,15.12
2022-09-09T00:37:45.984Z,15.05
2022-09-09T00:40:53.832Z,15.02
2022-09-09T00:44:02.460Z,14.95
2022-09-09T00:47:14.185Z,14.88
2022-09-09T00:50:37.433Z,14.91
2022-09-09T00:53:57.808Z,14.96
2022-09-09T00:57:12.396Z,14.97
2022-09-09T01:00:22.323Z,14.92
2022-09-09T01:03:35.615Z,14.94
2022-09-09T01:06:40.769Z,14.93
2022-09-09T01:09:53.711Z,14.81
2022-09-09T01:13:01.509Z,15.00
2022-09-09T01:16:07.400Z,15.00
2022-09-09T01:19:22.008Z,15.01
2022-09-09T01:22:37.462Z,15.03
2022-09-09T01:26:18.184Z,15.06
2022-09-09T01:29:24.395Z,15.07
2022-09-09T01:32:42.709Z,15.18
2022-09-09T01:35:51.807Z,15.26
2022-09-09T01:38:55.954Z,15.23
2022-09-09T01:42:02.572Z,15.31
2022-09-09T01:45:08.252Z,15.28
2022-09-09T01:48:11.538Z,15.26
2022-09-09T01:51:14.280Z,15.22
2022-09-09T01:54:17.454Z,15.28
2022-09-09T01:57:25.265Z,15.34
2022-09-09T02:00:32.618Z,15.35
2022-09-09T02:03:37.279Z,15.32
2022-09-09T02:06:42.138Z,15.27
2022-09-09T02:09:49.811Z,15.28
2022-09-09T02:12:58.082Z,15.23
2022-09-09T02:16:09.079Z,15.19
2022-09-09T02:19:15.570Z,15.11
2022-09-09T02:22:22.000Z,15.05
2022-09-09T02:25:28.916Z,15.05
2022-09-09T02:28:35.738Z,15.01
2022-09-09T02:31:41.464Z,14.96
2022-09-09T02:34:49.266Z,14.99
2022-09-09T02:37:55.583Z,14.96
2022-09-09T02:40:59.198Z,14.92
2022-09-09T02:44:02.742Z,14.92
2022-09-09T02:47:24.123Z,14.83
2022-09-09T02:50:34.881Z,14.83
2022-09-09T02:53:48.735Z,14.86
2022-09-09T02:56:55.301Z,14.87
2022-09-09T03:00:00.210Z,14.84
2022-09-09T03:03:05.025Z,14.85
2022-09-09T03:06:08.329Z,14.91
2022-09-09T03:09:11.908Z,14.92
2022-09-09T03:12:15.113Z,14.99
2022-09-09T03:15:18.443Z,14.92
2022-09-09T03:18:22.593Z,14.92
2022-09-09T03:21:25.879Z,14.93
2022-09-09T03:24:28.633Z,14.81
2022-09-09T03:27:31.676Z,14.84
2022-09-09T03:30:34.470Z,14.84
2022-09-09T03:33:38.572Z,14.86
2022-09-09T03:36:42.436Z,14.78
2022-09-09T03:39:46.622Z,14.79
2022-09-09T03:42:49.661Z,14.76
2022-09-09T03:45:53.168Z,14.76
2022-09-09T03:48:58.589Z,14.70
2022-09-09T03:52:02.028Z,14.66
2022-09-09T03:55:05.603Z,14.63
2022-09-09T03:58:08.887Z,14.61
2022-09-09T04:01:14.458Z,14.52
2022-09-09T04:04:18.652Z,14.51
2022-09-09T04:07:22.467Z,14.46
2022-09-09T04:10:25.212Z,14.41
2022-09-09T04:13:28.407Z,14.32
2022-09-09T04:16:31.388Z,14.25
2022-09-09T04:19:35.499Z,14.20
2022-09-09T04:22:40.199Z,14.14
2022-09-09T04:25:48.146Z,14.15
2022-09-09T04:28:51.539Z,14.13
2022-09-09T04:31:54.387Z,14.11
2022-09-09T04:34:59.008Z,14.20
2022-09-09T04:38:03.597Z,14.18
2022-09-09T04:41:08.712Z,14.19
2022-09-09T04:44:11.724Z,14.16
2022-09-09T04:47:15.960Z,14.14
2022-09-09T04:50:20.404Z,14.11
2022-09-09T04:53:23.807Z,14.12
2022-09-09T04:56:28.222Z,14.12
2022-09-09T04:59:31.216Z,14.09
2022-09-09T05:02:34.282Z,14.08
2022-09-09T05:05:39.047Z,14.19
2022-09-09T05:08:44.508Z,14.27
2022-09-09T05:11:47.225Z,14.25
2022-09-09T05:14:49.881Z,14.28
2022-09-09T05:17:53.846Z,14.32
2022-09-09T05:21:03.009Z,14.34
2022-09-09T05:24:05.925Z,14.49
2022-09-09T05:27:08.560Z,14.51
2022-09-09T05:30:12.134Z,14.50
2022-09-09T05:33:14.924Z,14.45
2022-09-09T05:36:21.065Z,14.50
2022-09-09T05:39:24.161Z,14.59
2022-09-09T05:42:27.179Z,14.69
2022-09-09T05:45:30.832Z,14.76
2022-09-09T05:48:35.228Z,14.88
2022-09-09T05:51:39.887Z,14.94
2022-09-09T05:54:43.675Z,14.98
2022-09-09T05:57:51.040Z,15.01
2022-09-09T06:00:53.725Z,15.13
2022-09-09T06:03:57.074Z,15.32
2022-09-09T06:07:01.556Z,15.41
2022-09-09T06:10:04.438Z,15.58
2022-09-09T06:13:07.140Z,15.92
2022-09-09T06:16:12.791Z,16.64
2022-09-09T06:19:15.588Z,17.25
2022-09-09T06:22:20.235Z,17.65
2022-09-09T06:25:23.098Z,17.97
2022-09-09T06:28:26.449Z,18.01
2022-09-09T06:34:55.432Z,18.82
2022-09-09T06:37:59.589Z,19.39
2022-09-09T06:41:02.831Z,19.80
2022-09-09T06:44:05.801Z,19.86
2022-09-09T06:47:08.940Z,19.46
2022-09-09T06:50:12.244Z,19.83
2022-09-09T06:53:20.166Z,20.42
2022-09-09T06:56:26.042Z,20.81
2022-09-09T06:59:29.156Z,20.84
2022-09-09T07:02:32.105Z,20.60
2022-09-09T07:05:35.319Z,20.22
2022-09-09T07:08:39.391Z,19.82
2022-09-09T07:11:43.859Z,19.44
2022-09-09T07:14:46.762Z,19.16
2022-09-09T07:17:53.032Z,19.04
2022-09-09T07:20:57.143Z,19.06
2022-09-09T07:24:01.787Z,19.07
2022-09-09T07:27:05.194Z,18.95
2022-09-09T07:30:09.371Z,18.81
2022-09-09T07:33:12.080Z,18.72
2022-09-09T07:36:17.089Z,18.74
2022-09-09T07:39:21.064Z,18.84
2022-09-09T07:42:23.858Z,18.93
2022-09-09T07:45:29.274Z,19.06
2022-09-09T07:48:31.989Z,19.35
2022-09-09T07:51:37.183Z,19.79
2022-09-09T07:54:42.913Z,20.32
2022-09-09T07:57:45.781Z,20.80
2022-09-09T08:00:48.470Z,21.19
2022-09-09T08:03:56.817Z,21.40
2022-09-09T08:07:02.258Z,21.56
2022-09-09T08:10:07.437Z,21.49
2022-09-09T08:13:18.723Z,21.32
2022-09-09T08:16:23.819Z,21.22
2022-09-09T08:19:26.642Z,21.09
2022-09-09T08:22:29.342Z,20.98
2022-09-09T08:25:35.654Z,20.93
2022-09-09T08:28:38.611Z,21.08
2022-09-09T08:31:44.712Z,21.34
2022-09-09T08:34:47.719Z,21.57
2022-09-09T08:37:51.473Z,21.74
2022-09-09T08:41:05.749Z,22.05
2022-09-09T08:44:13.342Z,22.23
2022-09-09T08:47:34.319Z,22.42
2022-09-09T08:50:41.661Z,22.55
2022-09-09T08:53:50.126Z,22.55
2022-09-09T08:56:54.197Z,22.55
2022-09-09T08:59:58.615Z,22.56
2022-09-09T09:03:11.800Z,22.51
2022-09-09T09:06:28.978Z,22.51
2022-09-09T09:09:39.492Z,22.56
2022-09-09T09:12:48.464Z,22.78
2022-09-09T09:15:57.885Z,23.10
2022-09-09T09:19:01.376Z,23.14
2022-09-09T09:22:09.050Z,22.99
2022-09-09T09:25:18.933Z,22.87
2022-09-09T09:28:26.797Z,22.83
2022-09-09T09:31:29.725Z,22.75
2022-09-09T09:34:33.550Z,22.72
2022-09-09T09:37:37.474Z,22.58
2022-09-09T09:40:51.845Z,22.19
2022-09-09T09:43:56.829Z,21.77
2022-09-09T09:47:09.444Z,21.51
2022-09-09T09:50:19.813Z,21.29
2022-09-09T09:53:26.092Z,21.18
2022-09-09T09:56:30.795Z,21.17
2022-09-09T09:59:40.715Z,21.21
2022-09-09T10:02:45.229Z,21.28
2022-09-09T10:05:48.714Z,21.60
2022-09-09T10:08:53.223Z,21.76
2022-09-09T10:12:04.696Z,21.68
2022-09-09T10:15:28.312Z,21.59
2022-09-09T10:18:49.861Z,21.72
2022-09-09T10:22:03.815Z,22.04
2022-09-09T10:25:20.485Z,22.27
2022-09-09T10:28:37.216Z,22.38
2022-09-09T10:31:57.929Z,22.40
2022-09-09T10:35:06.574Z,22.38
2022-09-09T10:38:21.658Z,22.35
2022-09-09T10:41:37.599Z,22.56
2022-09-09T10:44:57.696Z,22.75
2022-09-09T10:48:21.184Z,22.95
2022-09-09T10:51:28.677Z,23.33
2022-09-09T10:54:49.200Z,23.51
2022-09-09T10:57:53.380Z,23.41
2022-09-09T11:01:01.452Z,23.38
2022-09-09T11:04:13.135Z,23.26
2022-09-09T11:07:27.581Z,23.11
2022-09-09T11:10:41.114Z,22.99
2022-09-09T11:13:52.360Z,22.99
2022-09-09T11:17:01.151Z,23.26
2022-09-09T11:20:07.743Z,23.68
2022-09-09T11:23:17.224Z,23.85
2022-09-09T11:26:30.715Z,24.07
2022-09-09T11:30:09.843Z,24.25
2022-09-09T11:33:33.142Z,24.37
2022-09-09T11:37:07.439Z,24.48
2022-09-09T11:40:18.304Z,24.50
2022-09-09T11:43:26.670Z,24.40
2022-09-09T11:46:37.479Z,24.41
2022-09-09T11:49:44.074Z,24.47
2022-09-09T11:52:50.453Z,24.76
2022-09-09T11:56:09.201Z,24.95
2022-09-09T11:59:23.089Z,25.15
2022-09-09T12:02:27.772Z,24.95
2022-09-09T12:05:40.502Z,24.75
2022-09-09T12:08:48.812Z,24.61
2022-09-09T12:11:52.632Z,24.47
2022-09-09T12:15:18.190Z,24.40
2022-09-09T12:18:26.195Z,24.10
2022-09-09T12:21:41.818Z,23.94
2022-09-09T12:24:54.928Z,24.02
2022-09-09T12:28:07.720Z,24.03
2022-09-09T12:31:18.639Z,23.96
2022-09-09T12:34:34.265Z,24.26
2022-09-09T12:37:39.359Z,24.58
2022-09-09T12:40:43.808Z,24.92
2022-09-09T12:43:48.553Z,25.20
2022-09-09T12:46:52.151Z,25.28
2022-09-09T12:49:58.559Z,25.43
2022-09-09T12:53:05.803Z,25.52
2022-09-09T12:56:20.380Z,25.72
2022-09-09T12:59:26.621Z,25.71
2022-09-09T13:02:31.189Z,25.56
2022-09-09T13:05:38.454Z,25.35
2022-09-09T13:08:42.014Z,25.11
2022-09-09T13:11:52.463Z,24.91
2022-09-09T13:14:58.150Z,24.76
2022-09-09T13:18:06.101Z,24.60
2022-09-09T13:21:09.000Z,24.46
2022-09-09T13:24:28.486Z,24.38
2022-09-09T13:27:35.571Z,24.12
2022-09-09T13:30:41.902Z,23.87
2022-09-09T13:33:45.040Z,23.52
2022-09-09T13:36:49.970Z,23.14
2022-09-09T13:39:55.081Z,22.71
2022-09-09T13:43:00.590Z,21.54
2022-09-09T13:46:04.827Z,20.88
2022-09-09T13:49:22.860Z,21.17
2022-09-09T13:52:27.039Z,21.46
2022-09-09T13:55:31.436Z,21.65
2022-09-09T13:58:36.038Z,21.77
2022-09-09T14:01:39.023Z,21.78
2022-09-09T14:04:42.847Z,21.74
2022-09-09T14:07:49.159Z,21.63
2022-09-09T14:10:56.482Z,21.51
2022-09-09T14:14:02.059Z,21.39
2022-09-09T14:17:07.561Z,21.39
2022-09-09T14:20:13.149Z,21.35
2022-09-09T14:23:16.565Z,21.18
2022-09-09T14:26:19.938Z,21.01
2022-09-09T14:29:26.153Z,20.84
2022-09-09T14:32:30.190Z,20.76
2022-09-09T14:35:34.409Z,20.57
2022-09-09T14:38:40.416Z,20.50
2022-09-09T14:41:43.183Z,20.49
2022-09-09T14:44:47.448Z,20.51
2022-09-09T14:47:51.497Z,20.64
2022-09-09T14:50:54.257Z,20.58
2022-09-09T14:53:58.935Z,20.62
2022-09-09T14:57:01.651Z,20.72
2022-09-09T15:00:07.340Z,21.06
2022-09-09T15:03:10.830Z,21.60
2022-09-09T15:06:15.371Z,22.12
2022-09-09T15:09:18.195Z,22.52
2022-09-09T15:12:21.562Z,22.71
2022-09-09T15:15:25.672Z,22.72
2022-09-09T15:18:28.345Z,22.66
2022-09-09T15:21:33.091Z,22.49
2022-09-09T15:24:36.440Z,22.33
2022-09-09T15:27:40.250Z,22.27
2022-09-09T15:30:46.425Z,22.28
2022-09-09T15:33:50.256Z,22.19
2022-09-09T15:36:53.122Z,22.36
2022-09-09T15:39:55.811Z,22.25
2022-09-09T15:42:58.585Z,22.08
2022-09-09T15:46:25.435Z,21.96
2022-09-09T15:49:28.808Z,21.80
2022-09-09T15:52:31.475Z,21.66
2022-09-09T15:55:34.263Z,21.49
2022-09-09T15:58:37.917Z,21.22
2022-09-09T16:01:43.400Z,20.77
2022-09-09T16:04:46.223Z,20.69
2022-09-09T16:07:48.984Z,20.41
2022-09-09T16:10:51.992Z,20.10
2022-09-09T16:13:56.141Z,19.90
2022-09-09T16:17:00.171Z,19.74
2022-09-09T16:20:04.133Z,19.71
2022-09-09T16:23:06.795Z,19.73
2022-09-09T16:26:12.915Z,19.69
2022-09-09T16:29:16.704Z,19.62
2022-09-09T16:32:21.174Z,19.57
2022-09-09T16:35:24.086Z,19.57
2022-09-09T16:38:26.787Z,19.58
2022-09-09T16:41:30.963Z,19.64
2022-09-09T16:44:33.671Z,19.66
2022-09-09T16:47:37.723Z,19.65
2022-09-09T16:50:41.089Z,19.69
2022-09-09T16:53:45.002Z,19.61
2022-09-09T16:56:50.065Z,19.55
2022-09-09T16:59:55.064Z,19.52
2022-09-09T17:02:59.919Z,19.51
2022-09-09T17:06:03.471Z,19.49
2022-09-09T17:09:08.395Z,19.48
2022-09-09T17:12:13.069Z,19.43
2022-09-09T17:15:16.067Z,19.35
2022-09-09T17:18:20.364Z,19.35
2022-09-09T17:21:26.834Z,19.34
2022-09-09T17:24:30.126Z,19.32
2022-09-09T17:27:34.161Z,19.33
2022-09-09T17:30:37.796Z,19.16
2022-09-09T17:33:44.113Z,18.91
2022-09-09T17:36:47.216Z,18.61
2022-09-09T17:39:50.462Z,18.43
2022-09-09T17:42:53.298Z,18.17
2022-09-09T17:45:56.030Z,18.00
2022-09-09T17:49:02.137Z,17.77
2022-09-09T17:52:04.974Z,17.68
2022-09-09T17:55:10.023Z,17.61
2022-09-09T17:58:12.778Z,17.53
2022-09-09T18:01:18.834Z,17.54
2022-09-09T18:04:23.090Z,17.36
2022-09-09T18:07:26.250Z,17.29
2022-09-09T18:10:29.303Z,17.17
2022-09-09T18:13:32.101Z,17.10
2022-09-09T18:16:36.134Z,17.02
2022-09-09T18:19:40.751Z,16.97
2022-09-09T18:22:44.038Z,16.89
2022-09-09T18:25:46.932Z,16.81
2022-09-09T18:28:51.330Z,16.58
2022-09-09T18:31:55.115Z,16.67
2022-09-09T18:34:59.384Z,16.66
2022-09-09T18:38:02.468Z,16.63
2022-09-09T18:41:14.999Z,16.47
2022-09-09T18:44:20.766Z,16.50
2022-09-09T18:47:24.729Z,16.50
2022-09-09T18:50:29.328Z,16.47
2022-09-09T18:53:32.256Z,16.43
2022-09-09T18:56:35.991Z,16.55
2022-09-09T18:59:38.862Z,16.56
2022-09-09T19:02:42.034Z,16.57
2022-09-09T19:05:46.595Z,16.72
2022-09-09T19:08:53.484Z,16.75
2022-09-09T19:11:59.815Z,16.88
2022-09-09T19:15:03.238Z,16.84
2022-09-09T19:18:06.115Z,16.90
2022-09-09T19:21:15.160Z,16.94
2022-09-09T19:24:20.351Z,17.03
2022-09-09T19:27:23.247Z,17.03
2022-09-09T19:30:26.362Z,17.16
2022-09-09T19:33:31.575Z,17.12
2022-09-09T19:36:35.645Z,17.20
2022-09-09T19:39:38.431Z,17.20
2022-09-09T19:42:42.317Z,17.16
2022-09-09T19:45:45.079Z,17.10
2022-09-09T19:48:48.563Z,17.20
2022-09-09T19:51:52.576Z,17.08
2022-09-09T19:54:56.039Z,16.88
2022-09-09T19:57:58.832Z,16.82
2022-09-09T20:01:07.256Z,16.74
2022-09-09T20:04:10.263Z,16.72
2022-09-09T20:07:15.260Z,16.68
2022-09-09T20:10:18.278Z,16.70
2022-09-09T20:13:21.633Z,16.65
2022-09-09T20:16:26.567Z,16.63
2022-09-09T20:19:29.721Z,16.64
2022-09-09T20:22:34.072Z,16.67
2022-09-09T20:25:37.203Z,16.71
2022-09-09T20:28:42.258Z,16.75
2022-09-09T20:31:45.538Z,16.79
2022-09-09T20:34:48.577Z,16.80
2022-09-09T20:37:52.600Z,16.83
2022-09-09T20:40:56.769Z,16.87
2022-09-09T20:44:02.594Z,16.82
2022-09-09T20:47:06.692Z,16.77
2022-09-09T20:50:10.493Z,16.77
2022-09-09T20:53:15.226Z,16.55
2022-09-09T20:56:18.223Z,16.75
2022-09-09T20:59:22.813Z,16.73
2022-09-09T21:02:25.732Z,16.74
2022-09-09T21:05:28.915Z,16.76
2022-09-09T21:08:34.021Z,16.64
2022-09-09T21:11:37.267Z,16.62
2022-09-09T21:14:39.991Z,16.58
2022-09-09T21:17:43.345Z,16.48
2022-09-09T21:20:47.100Z,16.46
2022-09-09T21:23:54.319Z,16.44
2022-09-09T21:26:57.021Z,16.41
2022-09-09T21:29:59.736Z,16.44
2022-09-09T21:33:04.103Z,16.41
2022-09-09T21:36:08.173Z,16.41
2022-09-09T21:39:12.292Z,16.42
2022-09-09T21:42:15.388Z,16.45
2022-09-09T21:45:19.817Z,16.39
2022-09-09T21:48:24.009Z,16.36
2022-09-09T21:51:27.141Z,16.32
2022-09-09T21:54:32.707Z,16.25
2022-09-09T21:57:35.522Z,16.27
2022-09-09T22:01:03.341Z,16.23
2022-09-09T22:04:06.054Z,16.17
2022-09-09T22:07:08.915Z,16.18
2022-09-09T22:10:13.686Z,16.12
2022-09-09T22:13:17.913Z,16.06
2022-09-09T22:16:22.540Z,16.00
2022-09-09T22:19:25.588Z,15.98
2022-09-09T22:22:28.931Z,15.98
2022-09-09T22:25:35.896Z,16.02
2022-09-09T22:28:39.499Z,16.00
2022-09-09T22:31:43.371Z,15.96
2022-09-09T22:34:46.781Z,15.86
2022-09-09T22:37:49.583Z,15.87
2022-09-09T22:40:53.708Z,15.88
2022-09-09T22:43:56.997Z,15.84
2022-09-09T22:47:00.693Z,15.79
2022-09-09T22:50:04.257Z,15.80
2022-09-09T22:53:07.607Z,15.75
2022-09-09T22:56:17.174Z,15.79
2022-09-09T22:59:20.917Z,15.78
2022-09-09T23:02:24.085Z,15.76
2022-09-09T23:05:27.634Z,15.74
2022-09-09T23:08:36.599Z,15.71
2022-09-09T23:11:40.887Z,15.79
2022-09-09T23:14:43.666Z,15.79
2022-09-09T23:17:46.452Z,15.81
2022-09-09T23:21:00.624Z,15.89
2022-09-09T23:24:05.019Z,15.97
2022-09-09T23:27:09.101Z,16.00
2022-09-09T23:30:12.768Z,16.01
2022-09-09T23:33:15.497Z,16.05
2022-09-09T23:36:21.296Z,16.08
2022-09-09T23:39:24.131Z,15.99
2022-09-09T23:42:28.735Z,15.93
2022-09-09T23:45:34.241Z,15.82
2022-09-09T23:48:39.164Z,16.02
2022-09-09T23:51:42.400Z,16.05
2022-09-09T23:54:45.610Z,16.07
2022-09-09T23:57:49.924Z,16.08
